Hattitude — VMQ9684 — position and weather

sailwx.info

Track history (hours):
 
Tides and Currents Weather Stations Pressure Air Temp Water Temp Dewpoint Dewpoint Depression Visibility Wind Speed Wind Dir Waves Ship Positions

Hattitude

Last reported at 2017-Sep-21 00:08 UTC. Time now 2017-Dec-12 04:40 UTC.
Position S 27°31' E 153°19'.
Warning: this ship's position is months out of date.

Length 20 m.

Type: Pleasure craft. MMSI: 503459200.

Date/timePositionNaut miles runAvg speedWind from/ knotsBaromVisibWave heightAir tempDewpointWater temp
2017-Sep-21 00:08S 27°31' E 153°19'2 7.9
2017-Sep-20 23:53S 27°33' E 153°20'3 7.4
2017-Sep-20 23:29S 27°36' E 153°20'2 5.1
2017-Sep-20 23:00S 27°38' E 153°20'3 6.2
2017-Sep-20 22:30S 27°41' E 153°22'4 7.8
2017-Sep-20 22:00S 27°45' E 153°21'3 6.4
2017-Sep-20 21:30S 27°47' E 153°24'3 6.5
2017-Sep-20 21:00S 27°50' E 153°24'2 4.8
2017-Sep-20 20:30S 27°53' E 153°23'2 3.4
2017-Sep-20 20:00S 27°51' E 153°22'0 0.0
2017-Sep-20 00:38S 27°51' E 153°22'0 0.5
2017-Sep-20 00:30S 27°51' E 153°22'0 0.1
2017-Sep-20 00:00S 27°51' E 153°22'0 0.0
2017-Sep-19 23:30S 27°51' E 153°22'  
2017-Sep-17 00:49S 27°51' E 153°22'1 4.0
2017-Sep-17 00:30S 27°52' E 153°23'2 3.8
2017-Sep-17 00:00S 27°53' E 153°25'2 3.2
2017-Sep-16 23:29S 27°52' E 153°23'2 3.2
2017-Sep-16 22:58S 27°51' E 153°22'  
2017-Sep-11 06:58S 27°51' E 153°22'0 0.0
2017-Sep-11 06:28S 27°51' E 153°22'0 0.0
2017-Sep-11 05:58S 27°51' E 153°22'  
Track history (hours):
 
Tides and Currents Weather Stations Pressure Air Temp Water Temp Dewpoint Dewpoint Depression Visibility Wind Speed Wind Dir Waves Ship Positions

Hattitude

Last reported at 2017-Sep-21 00:08 UTC. Time now 2017-Dec-12 04:40 UTC.
Position S 27°31' E 153°19'.
Warning: this ship's position is months out of date.

Length 20 m.

Type: Pleasure craft. MMSI: 503459200.

Date/timePositionNaut miles runAvg speedWind from/ knotsBaromVisibWave heightAir tempDewpointWater temp
2017-Sep-21 00:08S 27°31' E 153°19'2 7.9
2017-Sep-20 23:53S 27°33' E 153°20'3 7.4
2017-Sep-20 23:29S 27°36' E 153°20'2 5.1
2017-Sep-20 23:00S 27°38' E 153°20'3 6.2
2017-Sep-20 22:30S 27°41' E 153°22'4 7.8
2017-Sep-20 22:00S 27°45' E 153°21'3 6.4
2017-Sep-20 21:30S 27°47' E 153°24'3 6.5
2017-Sep-20 21:00S 27°50' E 153°24'2 4.8
2017-Sep-20 20:30S 27°53' E 153°23'2 3.4
2017-Sep-20 20:00S 27°51' E 153°22'0 0.0
2017-Sep-20 00:38S 27°51' E 153°22'0 0.5
2017-Sep-20 00:30S 27°51' E 153°22'0 0.1
2017-Sep-20 00:00S 27°51' E 153°22'0 0.0
2017-Sep-19 23:30S 27°51' E 153°22'  
2017-Sep-17 00:49S 27°51' E 153°22'1 4.0
2017-Sep-17 00:30S 27°52' E 153°23'2 3.8
2017-Sep-17 00:00S 27°53' E 153°25'2 3.2
2017-Sep-16 23:29S 27°52' E 153°23'2 3.2
2017-Sep-16 22:58S 27°51' E 153°22'  
2017-Sep-11 06:58S 27°51' E 153°22'0 0.0
2017-Sep-11 06:28S 27°51' E 153°22'0 0.0
2017-Sep-11 05:58S 27°51' E 153°22'  

Dump ship's entire track history